createdAt,value
2018-08-31T00:00:21.397Z,16.94
2018-08-31T00:01:01.966Z,16.89
2018-08-31T00:01:42.532Z,16.89
2018-08-31T00:02:23.118Z,16.96
2018-08-31T00:03:03.674Z,16.9
2018-08-31T00:03:44.243Z,16.79
2018-08-31T00:04:24.807Z,16.84
2018-08-31T00:05:05.369Z,16.78
2018-08-31T00:05:45.936Z,16.84
2018-08-31T00:06:26.486Z,16.81
2018-08-31T00:07:07.060Z,16.9
2018-08-31T00:07:47.614Z,16.81
2018-08-31T00:08:28.182Z,16.83
2018-08-31T00:09:08.758Z,16.83
2018-08-31T00:09:49.312Z,16.81
2018-08-31T00:10:29.873Z,16.84
2018-08-31T00:11:10.447Z,16.83
2018-08-31T00:11:51.003Z,16.83
2018-08-31T00:12:31.566Z,16.86
2018-08-31T00:13:12.140Z,16.83
2018-08-31T00:13:52.698Z,16.86
2018-08-31T00:14:33.261Z,16.79
2018-08-31T00:15:13.824Z,16.83
2018-08-31T00:15:54.385Z,16.84
2018-08-31T00:16:34.936Z,16.86
2018-08-31T00:17:15.492Z,16.78
2018-08-31T00:17:56.114Z,16.83
2018-08-31T00:18:36.766Z,16.81
2018-08-31T00:19:17.323Z,16.79
2018-08-31T00:19:57.939Z,16.83
2018-08-31T00:20:38.519Z,16.76
2018-08-31T00:21:19.098Z,16.79
2018-08-31T00:21:59.702Z,16.74
2018-08-31T00:22:40.251Z,16.75
2018-08-31T00:23:20.815Z,16.75
2018-08-31T00:24:01.376Z,16.72
2018-08-31T00:24:41.949Z,16.69
2018-08-31T00:25:22.498Z,16.64
2018-08-31T00:26:03.067Z,16.71
2018-08-31T00:26:43.658Z,16.76
2018-08-31T00:27:24.231Z,16.69
2018-08-31T00:28:04.809Z,16.74
2018-08-31T00:28:45.398Z,16.74
2018-08-31T00:29:26.039Z,16.68
2018-08-31T00:30:06.619Z,16.79
2018-08-31T00:30:47.182Z,16.74
2018-08-31T00:31:27.748Z,16.64
2018-08-31T00:32:08.305Z,16.65
2018-08-31T00:32:49.022Z,16.68
2018-08-31T00:33:29.638Z,16.66
2018-08-31T00:34:10.206Z,16.69
2018-08-31T00:34:50.779Z,16.68
2018-08-31T00:35:31.367Z,16.66
2018-08-31T00:36:11.923Z,16.68
2018-08-31T00:36:52.473Z,16.72
2018-08-31T00:37:33.039Z,16.69
2018-08-31T00:38:13.605Z,16.68
2018-08-31T00:38:54.165Z,16.68
2018-08-31T00:39:34.743Z,16.68
2018-08-31T00:40:15.315Z,16.68
2018-08-31T00:40:55.876Z,16.71
2018-08-31T00:41:36.458Z,16.65
2018-08-31T00:42:17.016Z,16.64
2018-08-31T00:42:57.578Z,16.6
2018-08-31T00:43:38.149Z,16.61
2018-08-31T00:44:18.723Z,16.65
2018-08-31T00:44:59.262Z,16.64
2018-08-31T00:45:39.820Z,16.58
2018-08-31T00:46:20.374Z,16.56
2018-08-31T00:47:00.962Z,16.54
2018-08-31T00:47:41.529Z,16.57
2018-08-31T00:48:22.094Z,16.57
2018-08-31T00:49:02.708Z,16.57
2018-08-31T00:49:43.261Z,16.58
2018-08-31T00:50:23.822Z,16.54
2018-08-31T00:51:04.375Z,16.56
2018-08-31T00:51:44.933Z,16.53
2018-08-31T00:52:25.497Z,16.46
2018-08-31T00:53:06.063Z,16.43
2018-08-31T00:53:46.622Z,16.41
2018-08-31T00:54:27.177Z,16.38
2018-08-31T00:55:07.732Z,16.42
2018-08-31T00:55:48.290Z,16.41
2018-08-31T00:56:28.852Z,16.41
2018-08-31T00:57:09.426Z,16.43
2018-08-31T00:57:49.998Z,16.39
2018-08-31T00:58:30.555Z,16.36
2018-08-31T00:59:11.107Z,16.35
2018-08-31T00:59:51.701Z,16.46
2018-08-31T01:00:32.281Z,16.35
2018-08-31T01:01:12.823Z,16.36
2018-08-31T01:01:53.397Z,16.36
2018-08-31T01:02:33.952Z,16.32
2018-08-31T01:03:14.510Z,16.42
2018-08-31T01:03:55.066Z,16.35
2018-08-31T01:04:35.634Z,16.36
2018-08-31T01:05:16.226Z,16.32
2018-08-31T01:05:56.833Z,16.36
2018-08-31T01:06:37.410Z,16.35
2018-08-31T01:07:17.975Z,16.32
2018-08-31T01:07:58.545Z,16.32
2018-08-31T01:08:39.099Z,16.31
2018-08-31T01:09:19.670Z,16.28
2018-08-31T01:10:00.230Z,16.26
2018-08-31T01:10:40.795Z,16.31
2018-08-31T01:11:21.356Z,16.32
2018-08-31T01:12:01.924Z,16.26
2018-08-31T01:12:42.530Z,16.26
2018-08-31T01:13:23.052Z,16.2
2018-08-31T01:14:03.632Z,16.24
2018-08-31T01:14:44.200Z,16.2
2018-08-31T01:15:24.758Z,16.2
2018-08-31T01:16:05.319Z,16.16
2018-08-31T01:16:45.919Z,16.2
2018-08-31T01:17:26.474Z,16.16
2018-08-31T01:18:07.041Z,16.23
2018-08-31T01:18:47.620Z,16.17
2018-08-31T01:19:28.180Z,16.21
2018-08-31T01:20:08.743Z,16.16
2018-08-31T01:20:49.305Z,16.23
2018-08-31T01:21:29.905Z,16.23
2018-08-31T01:22:10.460Z,16.16
2018-08-31T01:22:51.022Z,16.2
2018-08-31T01:23:31.588Z,16.17
2018-08-31T01:24:12.155Z,16.23
2018-08-31T01:24:52.723Z,16.17
2018-08-31T01:25:33.286Z,16.15
2018-08-31T01:26:13.841Z,16.12
2018-08-31T01:26:54.404Z,16.12
2018-08-31T01:27:34.970Z,16.12
2018-08-31T01:28:15.536Z,16.13
2018-08-31T01:28:56.094Z,16.12
2018-08-31T01:29:36.660Z,16.04
2018-08-31T01:30:17.219Z,16.05
2018-08-31T01:30:57.795Z,16.08
2018-08-31T01:31:38.367Z,16
2018-08-31T01:32:18.936Z,16.01
2018-08-31T01:32:59.530Z,16.04
2018-08-31T01:33:40.090Z,16
2018-08-31T01:34:20.785Z,16.01
2018-08-31T01:35:01.712Z,16.1
2018-08-31T01:35:42.247Z,15.98
2018-08-31T01:36:22.804Z,16.05
2018-08-31T01:37:03.365Z,15.97
2018-08-31T01:37:43.927Z,15.98
2018-08-31T01:38:24.494Z,15.95
2018-08-31T01:39:05.058Z,15.97
2018-08-31T01:39:45.623Z,16
2018-08-31T01:40:26.187Z,15.98
2018-08-31T01:41:06.751Z,15.97
2018-08-31T01:41:47.312Z,16
2018-08-31T01:42:27.880Z,16
2018-08-31T01:43:08.441Z,16.01
2018-08-31T01:43:49.009Z,15.98
2018-08-31T01:44:29.574Z,15.97
2018-08-31T01:45:10.127Z,15.94
2018-08-31T01:45:50.717Z,15.9
2018-08-31T01:46:31.276Z,15.98
2018-08-31T01:47:11.830Z,15.94
2018-08-31T01:47:52.425Z,15.97
2018-08-31T01:48:32.979Z,15.86
2018-08-31T01:49:13.548Z,15.83
2018-08-31T01:49:54.120Z,15.91
2018-08-31T01:50:34.679Z,15.83
2018-08-31T01:51:15.236Z,15.94
2018-08-31T01:51:55.835Z,15.86
2018-08-31T01:52:36.407Z,15.88
2018-08-31T01:53:16.967Z,15.97
2018-08-31T01:53:57.547Z,15.83
2018-08-31T01:54:38.101Z,15.9
2018-08-31T01:55:18.703Z,15.92
2018-08-31T01:55:59.270Z,15.84
2018-08-31T01:56:39.857Z,15.84
2018-08-31T01:57:20.444Z,15.9
2018-08-31T01:58:01.023Z,15.9
2018-08-31T01:58:41.592Z,15.76
2018-08-31T01:59:22.166Z,15.83
2018-08-31T02:00:02.727Z,15.84
2018-08-31T02:00:43.294Z,15.84
2018-08-31T02:01:23.841Z,15.82
2018-08-31T02:02:04.404Z,15.8
2018-08-31T02:02:44.968Z,15.95
2018-08-31T02:03:25.561Z,15.86
2018-08-31T02:04:06.174Z,15.76
2018-08-31T02:04:46.678Z,15.84
2018-08-31T02:05:27.246Z,15.82
2018-08-31T02:06:07.801Z,15.86
2018-08-31T02:06:48.356Z,15.84
2018-08-31T02:07:28.963Z,15.84
2018-08-31T02:08:09.543Z,15.79
2018-08-31T02:08:50.100Z,15.79
2018-08-31T02:09:30.654Z,15.76
2018-08-31T02:10:11.214Z,15.76
2018-08-31T02:10:51.775Z,15.77
2018-08-31T02:11:32.339Z,15.84
2018-08-31T02:12:12.904Z,15.77
2018-08-31T02:12:53.466Z,15.79
2018-08-31T02:13:34.042Z,15.77
2018-08-31T02:14:14.612Z,15.76
2018-08-31T02:14:55.179Z,15.79
2018-08-31T02:15:35.740Z,15.79
2018-08-31T02:16:16.295Z,15.7
2018-08-31T02:16:56.862Z,15.72
2018-08-31T02:17:37.436Z,15.73
2018-08-31T02:18:18.004Z,15.77
2018-08-31T02:18:58.562Z,15.68
2018-08-31T02:19:39.139Z,15.77
2018-08-31T02:20:19.701Z,15.77
2018-08-31T02:21:00.273Z,15.8
2018-08-31T02:21:40.857Z,15.72
2018-08-31T02:22:21.445Z,15.77
2018-08-31T02:23:02.008Z,15.77
2018-08-31T02:23:42.570Z,15.73
2018-08-31T02:24:23.144Z,15.65
2018-08-31T02:25:03.700Z,15.7
2018-08-31T02:25:44.454Z,15.68
2018-08-31T02:26:25.015Z,15.65
2018-08-31T02:27:05.567Z,15.65
2018-08-31T02:27:46.125Z,15.68
2018-08-31T02:28:26.684Z,15.61
2018-08-31T02:29:07.242Z,15.65
2018-08-31T02:29:47.797Z,15.62
2018-08-31T02:30:28.388Z,15.64
2018-08-31T02:31:08.967Z,15.59
2018-08-31T02:31:49.553Z,15.65
2018-08-31T02:32:30.134Z,15.59
2018-08-31T02:33:10.691Z,15.58
2018-08-31T02:33:51.255Z,15.61
2018-08-31T02:34:31.814Z,15.58
2018-08-31T02:35:12.402Z,15.57
2018-08-31T02:35:52.963Z,15.61
2018-08-31T02:36:33.557Z,15.64
2018-08-31T02:37:14.196Z,15.61
2018-08-31T02:37:54.792Z,15.61
2018-08-31T02:38:35.361Z,15.58
2018-08-31T02:39:16.032Z,15.57
2018-08-31T02:39:56.504Z,15.64
2018-08-31T02:40:37.085Z,15.57
2018-08-31T02:41:17.678Z,15.55
2018-08-31T02:41:58.261Z,15.52
2018-08-31T02:42:38.812Z,15.49
2018-08-31T02:43:19.371Z,15.51
2018-08-31T02:43:59.949Z,15.57
2018-08-31T02:44:40.491Z,15.51
2018-08-31T02:45:21.054Z,15.55
2018-08-31T02:46:01.615Z,15.47
2018-08-31T02:46:42.203Z,15.43
2018-08-31T02:47:22.763Z,15.47
2018-08-31T02:48:03.339Z,15.55
2018-08-31T02:48:43.964Z,15.55
2018-08-31T02:49:24.503Z,15.49
2018-08-31T02:50:05.075Z,15.49
2018-08-31T02:50:45.630Z,15.51
2018-08-31T02:51:26.201Z,15.46
2018-08-31T02:52:06.764Z,15.46
2018-08-31T02:52:47.325Z,15.49
2018-08-31T02:53:27.901Z,15.49
2018-08-31T02:54:08.509Z,15.44
2018-08-31T02:54:49.059Z,15.43
2018-08-31T02:55:29.613Z,15.49
2018-08-31T02:56:10.197Z,15.49
2018-08-31T02:56:50.778Z,15.52
2018-08-31T02:57:31.359Z,15.51
2018-08-31T02:58:11.910Z,15.49
2018-08-31T02:58:52.466Z,15.47
2018-08-31T02:59:33.047Z,15.51
2018-08-31T03:00:13.621Z,15.43
2018-08-31T03:00:54.177Z,15.49
2018-08-31T03:01:34.803Z,15.35
2018-08-31T03:02:15.355Z,15.44
2018-08-31T03:02:55.970Z,15.4
2018-08-31T03:03:36.559Z,15.44
2018-08-31T03:04:17.126Z,15.36
2018-08-31T03:04:57.711Z,15.37
2018-08-31T03:05:38.317Z,15.46
2018-08-31T03:06:18.875Z,15.49
2018-08-31T03:06:59.446Z,15.35
2018-08-31T03:07:40.005Z,15.4
2018-08-31T03:08:20.545Z,15.35
2018-08-31T03:09:01.118Z,15.33
2018-08-31T03:09:41.689Z,15.4
2018-08-31T03:10:22.250Z,15.4
2018-08-31T03:11:02.801Z,15.36
2018-08-31T03:11:43.441Z,15.33
2018-08-31T03:12:23.929Z,15.33
2018-08-31T03:13:04.495Z,15.35
2018-08-31T03:13:45.054Z,15.4
2018-08-31T03:14:25.618Z,15.35
2018-08-31T03:15:06.235Z,15.29
2018-08-31T03:15:46.806Z,15.31
2018-08-31T03:16:27.367Z,15.36
2018-08-31T03:17:07.928Z,15.27
2018-08-31T03:17:48.621Z,15.36
2018-08-31T03:18:29.100Z,15.28
2018-08-31T03:19:09.683Z,15.35
2018-08-31T03:19:50.242Z,15.33
2018-08-31T03:20:30.800Z,15.33
2018-08-31T03:21:11.373Z,15.27
2018-08-31T03:21:51.988Z,15.33
2018-08-31T03:22:32.557Z,15.31
2018-08-31T03:23:13.119Z,15.33
2018-08-31T03:23:53.682Z,15.24
2018-08-31T03:24:34.243Z,15.31
2018-08-31T03:25:14.820Z,15.28
2018-08-31T03:25:55.396Z,15.33
2018-08-31T03:26:35.954Z,15.25
2018-08-31T03:27:16.528Z,15.29
2018-08-31T03:27:57.091Z,15.27
2018-08-31T03:28:37.653Z,15.25
2018-08-31T03:29:18.226Z,15.25
2018-08-31T03:29:58.776Z,15.33
2018-08-31T03:30:39.367Z,15.33
2018-08-31T03:31:19.970Z,15.31
2018-08-31T03:32:00.529Z,15.33
2018-08-31T03:32:41.108Z,15.22
2018-08-31T03:33:21.674Z,15.22
2018-08-31T03:34:02.238Z,15.31
2018-08-31T03:34:42.793Z,15.22
2018-08-31T03:35:23.363Z,15.28
2018-08-31T03:36:03.926Z,15.24
2018-08-31T03:36:44.558Z,15.24
2018-08-31T03:37:25.077Z,15.18
2018-08-31T03:38:05.616Z,15.21
2018-08-31T03:38:46.181Z,15.25
2018-08-31T03:39:26.739Z,15.24
2018-08-31T03:40:07.289Z,15.18
2018-08-31T03:40:47.880Z,15.17
2018-08-31T03:41:28.440Z,15.15
2018-08-31T03:42:08.994Z,15.24
2018-08-31T03:42:49.560Z,15.17
2018-08-31T03:43:30.149Z,15.18
2018-08-31T03:44:10.725Z,15.19
2018-08-31T03:44:51.307Z,15.25
2018-08-31T03:45:31.870Z,15.22
2018-08-31T03:46:12.417Z,15.18
2018-08-31T03:46:52.998Z,15.21
2018-08-31T03:47:33.582Z,15.15
2018-08-31T03:48:14.180Z,15.22
2018-08-31T03:48:54.791Z,15.25
2018-08-31T03:49:35.352Z,15.17
2018-08-31T03:50:15.919Z,15.19
2018-08-31T03:50:56.474Z,15.22
2018-08-31T03:51:37.064Z,15.18
2018-08-31T03:52:17.645Z,15.17
2018-08-31T03:52:58.246Z,15.14
2018-08-31T03:53:38.784Z,15.21
2018-08-31T03:54:19.391Z,15.17
2018-08-31T03:55:00.038Z,15.15
2018-08-31T03:55:40.593Z,15.24
2018-08-31T03:56:21.162Z,15.19
2018-08-31T03:57:01.726Z,15.18
2018-08-31T03:57:42.297Z,15.18
2018-08-31T03:58:22.847Z,15.18
2018-08-31T03:59:03.417Z,15.06
2018-08-31T03:59:44.044Z,15.11
2018-08-31T04:00:24.620Z,15.1
2018-08-31T04:01:05.153Z,15.09
2018-08-31T04:01:45.741Z,15.11
2018-08-31T04:02:26.505Z,15.09
2018-08-31T04:03:07.090Z,15.11
2018-08-31T04:03:47.647Z,15.14
2018-08-31T04:04:28.204Z,15.06
2018-08-31T04:05:08.752Z,15.09
2018-08-31T04:05:49.327Z,15.04
2018-08-31T04:06:29.899Z,15.09
2018-08-31T04:07:10.486Z,15.07
2018-08-31T04:07:51.138Z,15.15
2018-08-31T04:08:31.692Z,15.14
2018-08-31T04:09:12.258Z,15.11
2018-08-31T04:09:52.883Z,15.09
2018-08-31T04:10:33.441Z,15.04
2018-08-31T04:11:14.076Z,15.1
2018-08-31T04:11:54.643Z,15.15
2018-08-31T04:12:35.206Z,15.11
2018-08-31T04:13:15.759Z,15.11
2018-08-31T04:13:56.326Z,15.14
2018-08-31T04:14:36.890Z,15.07
2018-08-31T04:15:17.486Z,15.11
2018-08-31T04:15:58.081Z,15.1
2018-08-31T04:16:38.626Z,15.09
2018-08-31T04:17:19.273Z,15.09
2018-08-31T04:17:59.819Z,15.14
2018-08-31T04:18:40.384Z,15.15
2018-08-31T04:19:20.949Z,15.09
2018-08-31T04:20:01.512Z,15.17
2018-08-31T04:20:42.117Z,15.11
2018-08-31T04:21:22.683Z,15.1
2018-08-31T04:22:03.243Z,15.11
2018-08-31T04:22:43.845Z,15.11
2018-08-31T04:23:24.415Z,15.14
2018-08-31T04:24:04.969Z,15.14
2018-08-31T04:24:45.578Z,15.1
2018-08-31T04:25:26.138Z,15.1
2018-08-31T04:26:06.716Z,15.09
2018-08-31T04:26:47.293Z,15.15
2018-08-31T04:27:27.907Z,15.11
2018-08-31T04:28:08.484Z,15.14
2018-08-31T04:28:49.048Z,15.1
2018-08-31T04:29:29.606Z,15.11
2018-08-31T04:30:10.195Z,15.1
2018-08-31T04:30:50.791Z,15.15
2018-08-31T04:31:31.342Z,15.17
2018-08-31T04:32:11.901Z,15.1
2018-08-31T04:32:52.474Z,15.11
2018-08-31T04:33:33.025Z,15.11
2018-08-31T04:34:15.446Z,15.11
2018-08-31T04:34:55.983Z,15.06
2018-08-31T04:35:36.549Z,15.11
2018-08-31T04:36:17.190Z,15.11
2018-08-31T04:36:57.740Z,15.15
2018-08-31T04:37:38.330Z,15.09
2018-08-31T04:38:18.908Z,15.11
2018-08-31T04:38:59.545Z,15.14
2018-08-31T04:39:40.129Z,15.06
2018-08-31T04:40:20.703Z,15.11
2018-08-31T04:41:01.270Z,15.11
2018-08-31T04:41:41.887Z,15.24
2018-08-31T04:42:22.409Z,15.27
2018-08-31T04:43:02.998Z,15.33
2018-08-31T04:43:43.567Z,15.47
2018-08-31T04:44:24.150Z,15.49
2018-08-31T04:45:04.718Z,15.54
2018-08-31T04:45:45.285Z,15.61
2018-08-31T04:46:25.847Z,15.58
2018-08-31T04:47:06.400Z,15.72
2018-08-31T04:47:47.031Z,15.72
2018-08-31T04:48:27.583Z,15.8
2018-08-31T04:49:08.148Z,15.84
2018-08-31T04:49:48.754Z,15.82
2018-08-31T04:50:29.390Z,15.82
2018-08-31T04:51:09.890Z,15.84
2018-08-31T04:51:50.458Z,15.84
2018-08-31T04:52:31.025Z,15.94
2018-08-31T04:53:11.594Z,16.01
2018-08-31T04:53:52.156Z,15.95
2018-08-31T04:54:32.709Z,16.02
2018-08-31T04:55:13.275Z,16.13
2018-08-31T04:55:53.863Z,16.05
2018-08-31T04:56:34.434Z,16.13
2018-08-31T04:57:14.988Z,16.21
2018-08-31T04:57:55.579Z,16.26
2018-08-31T04:58:36.148Z,16.23
2018-08-31T04:59:16.722Z,16.26
2018-08-31T04:59:57.263Z,16.31
2018-08-31T05:00:37.886Z,16.26
2018-08-31T05:01:18.445Z,16.21
2018-08-31T05:01:59.020Z,16.29
2018-08-31T05:02:39.574Z,16.31
2018-08-31T05:03:20.126Z,16.36
2018-08-31T05:04:00.718Z,16.29
2018-08-31T05:04:41.362Z,16.36
2018-08-31T05:05:21.924Z,16.36
2018-08-31T05:06:02.482Z,16.32
2018-08-31T05:06:43.025Z,16.35
2018-08-31T05:07:23.608Z,16.46
2018-08-31T05:08:04.180Z,16.36
2018-08-31T05:08:44.801Z,16.46
2018-08-31T05:09:25.345Z,16.41
2018-08-31T05:10:05.920Z,16.43
2018-08-31T05:10:46.467Z,16.41
2018-08-31T05:11:27.052Z,16.42
2018-08-31T05:12:07.622Z,16.46
2018-08-31T05:12:48.178Z,16.42
2018-08-31T05:13:28.739Z,16.43
2018-08-31T05:14:09.281Z,16.47
2018-08-31T05:14:49.848Z,16.49
2018-08-31T05:15:30.415Z,16.47
2018-08-31T05:16:11.094Z,16.43
2018-08-31T05:16:51.611Z,16.49
2018-08-31T05:17:32.190Z,16.46
2018-08-31T05:18:12.797Z,16.54
2018-08-31T05:18:53.354Z,16.46
2018-08-31T05:19:33.898Z,16.51
2018-08-31T05:20:14.459Z,16.5
2018-08-31T05:20:55.018Z,16.5
2018-08-31T05:21:35.574Z,16.39
2018-08-31T05:22:16.173Z,16.36
2018-08-31T05:22:56.714Z,16.38
2018-08-31T05:23:37.275Z,16.32
2018-08-31T05:24:17.851Z,16.28
2018-08-31T05:24:58.416Z,16.31
2018-08-31T05:25:39.033Z,16.28
2018-08-31T05:26:19.579Z,16.32
2018-08-31T05:27:00.205Z,16.32
2018-08-31T05:27:40.784Z,16.43
2018-08-31T05:28:21.364Z,16.41
2018-08-31T05:29:01.975Z,16.49
2018-08-31T05:29:42.540Z,16.47
2018-08-31T05:30:23.089Z,16.51
2018-08-31T05:31:03.736Z,16.43
2018-08-31T05:31:44.297Z,16.5
2018-08-31T05:32:24.869Z,16.39
2018-08-31T05:33:05.441Z,16.41
2018-08-31T05:33:45.994Z,16.32
2018-08-31T05:34:26.561Z,16.31
2018-08-31T05:35:07.114Z,16.2
2018-08-31T05:35:47.677Z,16.16
2018-08-31T05:36:28.290Z,16.24
2018-08-31T05:37:08.900Z,16.12
2018-08-31T05:37:49.554Z,16.1
2018-08-31T05:38:30.151Z,16.09
2018-08-31T05:39:10.726Z,16.02
2018-08-31T05:39:51.267Z,16
2018-08-31T05:40:31.826Z,16
2018-08-31T05:41:12.396Z,16.02
2018-08-31T05:41:52.953Z,16
2018-08-31T05:42:33.532Z,16.08
2018-08-31T05:43:14.095Z,16
2018-08-31T05:43:54.642Z,16.01
2018-08-31T05:44:35.215Z,15.98
2018-08-31T05:45:15.775Z,16
2018-08-31T05:45:56.330Z,15.97
2018-08-31T05:46:36.881Z,15.88
2018-08-31T05:47:17.437Z,15.83
2018-08-31T05:47:58.024Z,15.83
2018-08-31T05:48:38.575Z,15.94
2018-08-31T05:49:19.570Z,15.88
2018-08-31T05:50:00.132Z,15.9
2018-08-31T05:50:40.687Z,15.84
2018-08-31T05:51:21.249Z,15.9
2018-08-31T05:52:01.804Z,15.86
2018-08-31T05:52:42.347Z,15.84
2018-08-31T05:53:22.922Z,15.8
2018-08-31T05:54:03.523Z,15.8
2018-08-31T05:54:44.094Z,15.79
2018-08-31T05:55:24.653Z,15.84
2018-08-31T05:56:05.231Z,15.86
2018-08-31T05:56:45.828Z,15.82
2018-08-31T05:57:26.383Z,15.77
2018-08-31T05:58:06.957Z,15.76
2018-08-31T05:58:47.537Z,15.84
2018-08-31T05:59:28.105Z,15.83
2018-08-31T06:00:08.786Z,15.79
2018-08-31T06:00:49.384Z,15.76
2018-08-31T06:01:30.033Z,15.86
2018-08-31T06:02:10.667Z,15.82
2018-08-31T06:02:51.153Z,15.84
2018-08-31T06:03:31.729Z,15.84
2018-08-31T06:04:12.297Z,15.8
2018-08-31T06:04:52.862Z,15.8
2018-08-31T06:05:33.421Z,15.76
2018-08-31T06:06:13.976Z,15.77
2018-08-31T06:06:54.546Z,15.82
2018-08-31T06:07:35.121Z,15.77
2018-08-31T06:08:15.705Z,15.84
2018-08-31T06:08:56.267Z,15.82
2018-08-31T06:09:36.834Z,15.76
2018-08-31T06:10:17.385Z,15.86
2018-08-31T06:10:57.983Z,15.8
2018-08-31T06:11:38.568Z,15.79
2018-08-31T06:12:19.109Z,15.75
2018-08-31T06:12:59.687Z,15.86
2018-08-31T06:13:40.276Z,15.84
2018-08-31T06:14:20.824Z,15.77
2018-08-31T06:15:01.415Z,15.88
2018-08-31T06:15:41.963Z,15.76
2018-08-31T06:16:22.539Z,15.86
2018-08-31T06:17:03.372Z,15.79
2018-08-31T06:17:43.934Z,15.76
2018-08-31T06:18:24.478Z,15.73
2018-08-31T06:19:05.033Z,15.73
2018-08-31T06:19:45.589Z,15.73
2018-08-31T06:20:26.142Z,15.76
2018-08-31T06:21:06.871Z,15.75
2018-08-31T06:21:47.403Z,15.79
2018-08-31T06:22:27.978Z,15.79
2018-08-31T06:23:09.189Z,15.76
2018-08-31T06:23:49.784Z,15.76
2018-08-31T06:24:30.739Z,15.79
2018-08-31T06:25:11.979Z,15.75
2018-08-31T06:25:52.616Z,15.82
2018-08-31T06:26:33.315Z,15.86
2018-08-31T06:27:14.357Z,15.77
2018-08-31T06:27:57.275Z,15.82
2018-08-31T06:28:37.932Z,15.82
2018-08-31T06:29:18.508Z,15.77
2018-08-31T06:29:59.103Z,15.82
2018-08-31T06:30:39.664Z,15.77
2018-08-31T06:31:20.249Z,15.77
2018-08-31T06:32:00.817Z,15.77
2018-08-31T06:32:41.516Z,15.79
2018-08-31T06:33:22.051Z,15.76
2018-08-31T06:34:02.857Z,15.76
2018-08-31T06:34:43.589Z,15.88
2018-08-31T06:35:24.159Z,15.84
2018-08-31T06:36:04.768Z,15.8
2018-08-31T06:36:45.353Z,15.8
2018-08-31T06:37:26.014Z,15.76
2018-08-31T06:38:06.770Z,15.83
2018-08-31T06:38:47.305Z,15.84
2018-08-31T06:39:27.944Z,15.98
2018-08-31T06:40:08.553Z,16.01
2018-08-31T06:40:49.192Z,16.05
2018-08-31T06:41:29.723Z,16.09
2018-08-31T06:42:10.406Z,16.13
2018-08-31T06:42:50.936Z,16.09
2018-08-31T06:43:31.529Z,16.23
2018-08-31T06:44:12.282Z,16.28
2018-08-31T06:44:52.852Z,16.28
2018-08-31T06:45:33.437Z,16.38
2018-08-31T06:46:14.058Z,16.38
2018-08-31T06:46:54.746Z,16.39
2018-08-31T06:47:35.305Z,16.39
2018-08-31T06:48:15.878Z,16.41
2018-08-31T06:48:56.469Z,16.42
2018-08-31T06:49:37.082Z,16.43
2018-08-31T06:50:17.690Z,16.47
2018-08-31T06:50:58.342Z,16.5
2018-08-31T06:51:38.888Z,16.46
2018-08-31T06:52:19.483Z,16.56
2018-08-31T06:53:00.106Z,16.54
2018-08-31T06:53:40.772Z,16.56
2018-08-31T06:54:21.352Z,16.56
2018-08-31T06:55:02.030Z,16.5
2018-08-31T06:55:42.578Z,16.51
2018-08-31T06:56:23.201Z,16.5
2018-08-31T06:57:03.767Z,16.51
2018-08-31T06:57:44.369Z,16.47
2018-08-31T06:58:24.945Z,16.57
2018-08-31T06:59:05.514Z,16.56
2018-08-31T06:59:46.092Z,16.57
2018-08-31T07:00:26.955Z,16.56
2018-08-31T07:01:07.602Z,16.57
2018-08-31T07:01:48.210Z,16.56
2018-08-31T07:02:28.792Z,16.56
2018-08-31T07:03:09.822Z,16.54
2018-08-31T07:03:50.504Z,16.54
2018-08-31T07:04:31.775Z,16.61
2018-08-31T07:05:11.966Z,16.6
2018-08-31T07:05:52.618Z,16.58
2018-08-31T07:06:33.289Z,16.57
2018-08-31T07:07:13.928Z,16.57
2018-08-31T07:07:54.563Z,16.64
2018-08-31T07:08:35.122Z,16.58
2018-08-31T07:09:15.714Z,16.6
2018-08-31T07:09:56.366Z,16.6
2018-08-31T07:10:36.969Z,16.61
2018-08-31T07:11:17.600Z,16.61
2018-08-31T07:11:58.381Z,16.6
2018-08-31T07:12:39.084Z,16.56
2018-08-31T07:13:19.749Z,16.56
2018-08-31T07:14:00.305Z,16.56
2018-08-31T07:14:40.898Z,16.57
2018-08-31T07:15:21.570Z,16.54
2018-08-31T07:16:02.181Z,16.54
2018-08-31T07:16:42.872Z,16.56
2018-08-31T07:17:23.675Z,16.56
2018-08-31T07:18:04.228Z,16.56
2018-08-31T07:18:44.819Z,16.54
2018-08-31T07:19:25.470Z,16.56
2018-08-31T07:20:06.128Z,16.56
2018-08-31T07:20:46.679Z,16.57
2018-08-31T07:21:27.463Z,16.51
2018-08-31T07:22:08.113Z,16.53
2018-08-31T07:22:48.725Z,16.6
2018-08-31T07:23:29.433Z,16.53
2018-08-31T07:24:10.013Z,16.57
2018-08-31T07:24:50.571Z,16.51
2018-08-31T07:25:31.198Z,16.6
2018-08-31T07:26:11.797Z,16.54
2018-08-31T07:26:52.436Z,16.57
2018-08-31T07:27:33.053Z,16.54
2018-08-31T07:28:13.661Z,16.54
2018-08-31T07:28:54.239Z,16.51
2018-08-31T07:29:34.824Z,16.5
2018-08-31T07:30:15.436Z,16.51
2018-08-31T07:30:55.988Z,16.54
2018-08-31T07:31:36.545Z,16.54
2018-08-31T07:32:17.176Z,16.47
2018-08-31T07:32:57.706Z,16.56
2018-08-31T07:33:38.256Z,16.49
2018-08-31T07:34:18.824Z,16.57
2018-08-31T07:34:59.386Z,16.53
2018-08-31T07:35:40.019Z,16.58
2018-08-31T07:36:20.599Z,16.53
2018-08-31T07:37:01.091Z,16.54
2018-08-31T07:37:41.640Z,16.64
2018-08-31T07:38:22.236Z,16.54
2018-08-31T07:39:02.826Z,16.56
2018-08-31T07:39:43.379Z,16.56
2018-08-31T07:40:23.934Z,16.54
2018-08-31T07:41:04.494Z,16.51
2018-08-31T07:41:45.051Z,16.47
2018-08-31T07:42:25.621Z,16.57
2018-08-31T07:43:06.180Z,16.54
2018-08-31T07:43:46.752Z,16.54
2018-08-31T07:44:27.308Z,16.56
2018-08-31T07:45:07.874Z,16.56
2018-08-31T07:45:48.439Z,16.54
2018-08-31T07:46:29.002Z,16.57
2018-08-31T07:47:09.575Z,16.5
2018-08-31T07:47:50.283Z,16.53
2018-08-31T07:48:30.718Z,16.43
2018-08-31T07:49:11.279Z,16.47
2018-08-31T07:49:51.856Z,16.36
2018-08-31T07:50:32.539Z,16.41
2018-08-31T07:51:13.107Z,16.39
2018-08-31T07:51:53.684Z,16.42
2018-08-31T07:52:34.253Z,16.39
2018-08-31T07:53:14.822Z,16.35
2018-08-31T07:53:55.472Z,16.39
2018-08-31T07:54:35.956Z,16.41
2018-08-31T07:55:16.538Z,16.46
2018-08-31T07:55:57.156Z,16.46
2018-08-31T07:56:37.716Z,16.5
2018-08-31T07:57:18.287Z,16.47
2018-08-31T07:57:58.902Z,16.56
2018-08-31T07:58:39.485Z,16.61
2018-08-31T07:59:20.039Z,16.5
2018-08-31T08:00:00.603Z,16.53
2018-08-31T08:00:41.154Z,16.54
2018-08-31T08:01:21.717Z,16.57
2018-08-31T08:02:02.289Z,16.54
2018-08-31T08:02:42.856Z,16.54
2018-08-31T08:03:23.440Z,16.49
2018-08-31T08:04:04.000Z,16.54
2018-08-31T08:04:44.555Z,16.56
2018-08-31T08:05:25.164Z,16.6
2018-08-31T08:06:05.698Z,16.57
2018-08-31T08:06:46.294Z,16.64
2018-08-31T08:07:26.924Z,16.61
2018-08-31T08:08:07.457Z,16.65
